Andrews, Texas
Current Conditions -  °F | °C
As of 4:15 AM on Sunday 26 Oct 2014 (Local Time) from KE11 Reporting Station
Clear Clear  
Wind Chill: 63°   Ceiling: Unl
Heat Index: 63°   Visibility: 10mi
Dew Point: 55°   Wind: 12mph
Humidity: 75%   Direction: 200°SSW
Pressure: 30.05"   Gusts: 16mph
Location:  32.32°N, 102.54°W
Report Text: KE11 260915Z AUTO 20010G14KT 10SM CLR 17/13 A3005 RMK AO2 T01730128
Loading
Personal Weather Stations






























Interactive Weather Map
Tropical Storm Tracking
New forecast layout! Learn more

10-Day Weather Forecast

Advertisements
Track Severe Weather on mobile